Flight Track Log - Related Links

Times and Time Zones

All times are in EST time to prevent confusion due to time zone crossing. See the FLG4262 flight status page for this flight to view local times or setup timezone preferences in your user account.

Time Position Orientation Groundspeed Altitude Reporting Facility
EST Latitude Longitude Course Direction KTS MPH feet Rate Location/Type
Thu 04:17:15 PM 42.2008 -83.3550 172° South 162 186 1,600  Level Cleveland Center
Thu 04:18:35 PM 42.1325 -83.3428 172° South 217 250 4,700 2,121 Climbing Cleveland Center
Thu 04:19:11 PM 42.1072 -83.3017 130° Southeast 242 278 5,700 1,869 Climbing Cleveland Center
Thu 04:19:36 PM 42.0881 -83.2689 128° Southeast 282 325 6,600 2,323 Climbing Cleveland Center
Thu 04:20:13 PM 42.0714 -83.2047 109° East 299 344 8,100 2,061 Climbing Cleveland Center
Thu 04:21:15 PM 42.1025 -83.1017 68° East 319 367 10,000 1,887 Climbing Cleveland Center
Thu 04:22:17 PM 42.1503 -82.9869 61° Northeast 350 403 12,000 2,081 Climbing Cleveland Center
Thu 04:23:19 PM 42.2106 -82.8422 61° Northeast 371 427 14,300 1,839 Climbing Cleveland Center
Thu 04:24:21 PM 42.2617 -82.7161 61° Northeast 384 442 15,800 1,306 Climbing Cleveland Center
Thu 04:25:23 PM 42.3156 -82.5861 61° Northeast 395 455 17,000 1,016 Climbing Cleveland Center
Thu 04:26:25 PM 42.3664 -82.4450 64° Northeast 417 480 17,900 1,056 Climbing Cleveland Center
Thu 04:27:28 PM 42.3611 -82.2853 93° East 427 491 19,200 1,200 Climbing Cleveland Center
Thu 04:28:30 PM 42.3539 -82.0978 93° East 429 494 20,400 1,113 Climbing Cleveland Center
Thu 04:29:32 PM 42.3464 -81.9328 93° East 434 499 21,500 919 Climbing Cleveland Center
Thu 04:30:34 PM 42.3389 -81.7631 93° East 443 510 22,300 774 Climbing Cleveland Center
Thu 04:31:36 PM 42.3311 -81.5908 93° East 451 519 23,100 774 Climbing Cleveland Center
Thu 04:32:38 PM 42.3228 -81.4172 94° East 456 525 23,900 823 Climbing Cleveland Center
Thu 04:33:40 PM 42.3144 -81.2428 94° East 461 531 24,800 871 Climbing Cleveland Center
Thu 04:34:42 PM 42.3042 -81.0383 94° East 462 532 25,700 823 Climbing Cleveland Center
Thu 04:35:44 PM 42.2947 -80.8647 94° East 461 531 26,500 774 Climbing Cleveland Center
Thu 04:36:46 PM 42.2861 -80.6908 94° East 460 529 27,300 774 Climbing Cleveland Center
Thu 04:37:48 PM 42.2769 -80.5194 94° East 455 524 28,100 629 Climbing Cleveland Center
Thu 04:38:50 PM 42.2711 -80.3425 92° East 464 534 28,600 435 Climbing Cleveland Center
Thu 04:39:52 PM 42.2733 -80.1633 89° East 471 542 29,000 192 Climbing Cleveland Center
Thu 04:40:55 PM 42.2731 -79.9589 90° East 475 547 29,000  Level Cleveland Center
Thu 04:41:57 PM 42.2728 -79.7697 90° East 487 560 29,000  Level Cleveland Center
Thu 04:42:59 PM 42.2728 -79.5847 90° East 496 571 29,000  Level Cleveland Center
Thu 04:44:01 PM 42.2711 -79.3967 91° East 501 577 29,000  Level Cleveland Center
Thu 04:45:03 PM 42.2708 -79.2069 90° East 506 582 29,000 -242 Level Cleveland Center
Thu 04:46:05 PM 42.2692 -79.0153 91° East 511 588 28,500 -484 Descending Cleveland Center
Thu 04:47:07 PM 42.2689 -78.8133 90° East 513 590 28,000 -242 Descending Cleveland Center
Thu 04:48:09 PM 42.2667 -78.6239 91° East 509 586 28,000 -677 Level Cleveland Center
Thu 04:49:11 PM 42.2642 -78.4011 91° East 500 575 26,600 -1,355 Descending Cleveland Center
Thu 04:50:13 PM 42.2625 -78.2147 91° East 500 575 25,200 -1,355 Descending Cleveland Center
Thu 04:51:15 PM 42.2592 -78.0297 91° East 499 574 23,800 -1,597 Descending Cleveland Center
Thu 04:52:17 PM 42.2561 -77.8453 91° East 498 573 21,900 -1,824 Descending Cleveland Center
Thu 04:53:20 PM 42.2528 -77.6722 91° East 476 548 20,000 -1,920 Descending Cleveland Center
Thu 04:54:22 PM 42.2478 -77.4678 92° East 462 532 17,900 -1,694 Descending Cleveland Center
Thu 04:55:24 PM 42.2453 -77.2961 91° East 463 533 16,500 -1,548 Descending Cleveland Center
Thu 04:56:26 PM 42.2417 -77.1300 92° East 454 522 14,700 -1,742 Descending Cleveland Center
Thu 04:57:28 PM 42.2372 -76.9778 92° East 416 479 12,900 -1,742 Descending Cleveland Center
Thu 04:58:30 PM 42.2344 -76.8300 91° East 401 461 11,100 -1,452 Descending Cleveland Center
Thu 04:59:32 PM 42.2294 -76.6750 92° East 348 400 9,900 -1,016 Descending Cleveland Center
Thu 05:00:34 PM 42.1997 -76.5764 112° Southeast 296 341 9,000 -435 Descending Cleveland Center
Thu 05:01:36 PM 42.1681 -76.4756 113° Southeast 292 336 9,000 -387 Level Cleveland Center
Thu 05:02:38 PM 42.1553 -76.3633 99° East 300 345 8,200 -864 Descending Cleveland Center
Thu 05:03:41 PM 42.1558 -76.2525 90° East 298 343 7,200 -1,228 Descending Cleveland Center
Thu 05:04:45 PM 42.1583 -76.1308 88° East 291 335 5,600 -1,500 Descending New York Center
Thu 05:05:45 PM 42.1544 -76.0353 93° East 280 322 4,100 -850 Descending New York Center
Thu 05:06:45 PM 42.1358 -75.9808 115° Southeast 219 252 3,900 -200 Descending New York Center

Login

Don't have an account? Register now (free) for customized features, flight alerts, and more!